createdAt,value
2023-06-15T00:00:16.551Z,47.59
2023-06-15T00:01:48.297Z,47.88
2023-06-15T00:03:20.161Z,47.78
2023-06-15T00:04:52.250Z,47.53
2023-06-15T00:06:25.760Z,47.91
2023-06-15T00:07:58.014Z,48.18
2023-06-15T00:09:29.641Z,47.50
2023-06-15T00:11:01.338Z,46.57
2023-06-15T00:12:33.486Z,47.05
2023-06-15T00:14:06.652Z,46.91
2023-06-15T00:15:40.342Z,47.85
2023-06-15T00:17:13.073Z,47.14
2023-06-15T00:18:48.821Z,47.38
2023-06-15T00:20:22.593Z,47.98
2023-06-15T00:21:55.773Z,47.72
2023-06-15T00:23:28.104Z,47.39
2023-06-15T00:25:00.137Z,46.90
2023-06-15T00:26:31.779Z,47.07
2023-06-15T00:28:03.561Z,47.57
2023-06-15T00:29:35.179Z,47.49
2023-06-15T00:31:07.007Z,47.53
2023-06-15T00:32:39.058Z,48.04
2023-06-15T00:34:11.356Z,48.41
2023-06-15T00:35:43.006Z,47.63
2023-06-15T00:37:16.092Z,48.84
2023-06-15T00:38:47.714Z,49.10
2023-06-15T00:40:19.349Z,48.88
2023-06-15T00:41:50.964Z,49.98
2023-06-15T00:43:22.704Z,49.73
2023-06-15T00:44:54.367Z,49.68
2023-06-15T00:46:26.162Z,51.18
2023-06-15T00:47:57.803Z,50.15
2023-06-15T00:49:29.530Z,48.74
2023-06-15T00:51:01.239Z,49.81
2023-06-15T00:52:34.229Z,49.43
2023-06-15T00:54:05.978Z,48.77
2023-06-15T00:55:37.656Z,48.88
2023-06-15T00:57:12.007Z,48.92
2023-06-15T00:58:44.025Z,48.88
2023-06-15T01:00:17.134Z,48.84
2023-06-15T01:01:56.093Z,50.19
2023-06-15T01:03:28.073Z,51.01
2023-06-15T01:04:59.855Z,49.89
2023-06-15T01:06:32.964Z,49.22
2023-06-15T01:08:06.929Z,50.24
2023-06-15T01:09:40.183Z,49.42
2023-06-15T01:11:11.791Z,49.14
2023-06-15T01:12:45.628Z,49.93
2023-06-15T01:14:17.349Z,49.67
2023-06-15T01:15:49.474Z,49.37
2023-06-15T01:17:24.840Z,49.58
2023-06-15T01:19:00.252Z,49.19
2023-06-15T01:20:33.777Z,49.48
2023-06-15T01:22:09.279Z,49.81
2023-06-15T01:23:45.205Z,50.71
2023-06-15T01:25:28.172Z,51.02
2023-06-15T01:27:05.588Z,51.05
2023-06-15T01:28:42.058Z,51.42
2023-06-15T01:30:14.206Z,50.18
2023-06-15T01:31:45.920Z,50.39
2023-06-15T01:33:17.604Z,50.36
2023-06-15T01:34:49.863Z,50.36
2023-06-15T01:36:21.465Z,49.70
2023-06-15T01:37:53.095Z,49.60
2023-06-15T01:39:24.777Z,51.30
2023-06-15T01:40:56.839Z,49.25
2023-06-15T01:42:29.866Z,49.46
2023-06-15T01:44:01.665Z,51.46
2023-06-15T01:45:33.324Z,51.71
2023-06-15T01:47:06.206Z,50.72
2023-06-15T01:48:37.818Z,50.37
2023-06-15T01:50:11.072Z,50.76
2023-06-15T01:51:42.774Z,50.14
2023-06-15T01:53:14.514Z,50.83
2023-06-15T01:54:46.411Z,50.19
2023-06-15T01:56:18.155Z,50.30
2023-06-15T01:57:51.181Z,50.55
2023-06-15T01:59:22.804Z,50.05
2023-06-15T02:00:54.460Z,51.01
2023-06-15T02:02:26.215Z,49.85
2023-06-15T02:03:57.840Z,50.67
2023-06-15T02:05:30.167Z,50.76
2023-06-15T02:07:03.353Z,51.59
2023-06-15T02:08:37.362Z,51.83
2023-06-15T02:10:09.872Z,51.76
2023-06-15T02:11:43.153Z,51.27
2023-06-15T02:13:16.404Z,51.00
2023-06-15T02:14:51.103Z,50.99
2023-06-15T02:16:23.359Z,51.78
2023-06-15T02:18:02.696Z,52.56
2023-06-15T02:19:34.371Z,51.96
2023-06-15T02:21:06.154Z,51.41
2023-06-15T02:22:37.953Z,51.58
2023-06-15T02:24:09.614Z,52.05
2023-06-15T02:25:41.307Z,51.73
2023-06-15T02:27:13.059Z,52.61
2023-06-15T02:28:46.177Z,51.01
2023-06-15T02:30:21.255Z,51.43
2023-06-15T02:31:52.892Z,51.35
2023-06-15T02:33:26.772Z,51.65
2023-06-15T02:34:59.789Z,51.17
2023-06-15T02:36:31.744Z,51.50
2023-06-15T02:38:06.477Z,52.11
2023-06-15T02:39:38.074Z,51.30
2023-06-15T02:41:09.723Z,52.42
2023-06-15T02:42:41.615Z,51.78
2023-06-15T02:44:16.138Z,52.51
2023-06-15T02:45:47.888Z,53.81
2023-06-15T02:47:19.521Z,53.08
2023-06-15T02:48:52.693Z,53.31
2023-06-15T02:50:24.690Z,51.80
2023-06-15T02:51:56.333Z,53.84
2023-06-15T02:53:27.995Z,53.88
2023-06-15T02:54:59.691Z,54.25
2023-06-15T02:56:31.329Z,53.47
2023-06-15T02:58:02.953Z,52.92
2023-06-15T02:59:35.900Z,52.62
2023-06-15T03:01:08.285Z,53.11
2023-06-15T03:02:40.072Z,54.28
2023-06-15T03:04:15.704Z,54.39
2023-06-15T03:05:47.633Z,56.35
2023-06-15T03:07:21.893Z,55.69
2023-06-15T03:08:54.097Z,55.50
2023-06-15T03:10:25.979Z,56.94
2023-06-15T03:11:57.621Z,57.10
2023-06-15T03:13:32.805Z,55.57
2023-06-15T03:15:09.597Z,55.29
2023-06-15T03:16:42.128Z,54.72
2023-06-15T03:18:13.727Z,54.64
2023-06-15T03:19:45.501Z,54.41
2023-06-15T03:21:19.312Z,55.43
2023-06-15T03:22:51.052Z,56.29
2023-06-15T03:24:25.156Z,55.86
2023-06-15T03:25:57.303Z,53.73
2023-06-15T03:27:30.949Z,54.59
2023-06-15T03:29:04.097Z,54.68
2023-06-15T03:30:37.742Z,54.78
2023-06-15T03:32:09.647Z,54.93
2023-06-15T03:33:41.331Z,54.19
2023-06-15T03:35:13.619Z,55.91
2023-06-15T03:36:45.336Z,56.41
2023-06-15T03:38:17.257Z,56.54
2023-06-15T03:39:48.859Z,55.94
2023-06-15T03:41:20.450Z,56.88
2023-06-15T03:42:52.109Z,55.92
2023-06-15T03:44:23.788Z,56.54
2023-06-15T03:45:59.764Z,55.39
2023-06-15T03:47:33.203Z,56.15
2023-06-15T03:49:05.004Z,54.80
2023-06-15T03:50:36.644Z,55.27
2023-06-15T03:52:08.588Z,56.37
2023-06-15T03:53:42.554Z,56.17
2023-06-15T03:55:14.485Z,55.43
2023-06-15T03:56:46.533Z,56.83
2023-06-15T03:58:18.769Z,56.49
2023-06-15T03:59:50.478Z,56.24
2023-06-15T04:01:26.025Z,56.89
2023-06-15T04:02:58.163Z,55.80
2023-06-15T04:04:33.282Z,56.91
2023-06-15T04:06:05.486Z,56.05
2023-06-15T04:07:37.185Z,56.05
2023-06-15T04:09:09.195Z,56.63
2023-06-15T04:10:40.920Z,55.87
2023-06-15T04:12:12.525Z,55.92
2023-06-15T04:13:44.774Z,55.38
2023-06-15T04:15:16.873Z,56.20
2023-06-15T04:16:50.011Z,55.09
2023-06-15T04:18:21.831Z,55.48
2023-06-15T04:19:53.496Z,55.66
2023-06-15T04:21:25.101Z,55.68
2023-06-15T04:22:57.271Z,55.33
2023-06-15T04:24:29.070Z,55.18
2023-06-15T04:26:01.497Z,54.99
2023-06-15T04:27:35.246Z,56.17
2023-06-15T04:29:07.072Z,55.97
2023-06-15T04:30:45.837Z,55.16
2023-06-15T04:32:18.880Z,55.70
2023-06-15T04:33:50.575Z,55.73
2023-06-15T04:35:22.206Z,55.88
2023-06-15T04:36:54.098Z,54.73
2023-06-15T04:38:26.625Z,55.63
2023-06-15T04:40:00.793Z,56.41
2023-06-15T04:41:32.494Z,55.80
2023-06-15T04:43:04.597Z,55.85
2023-06-15T04:44:36.703Z,54.75
2023-06-15T04:46:08.300Z,56.43
2023-06-15T04:47:43.171Z,56.49
2023-06-15T04:49:14.935Z,57.64
2023-06-15T04:50:49.396Z,56.16
2023-06-15T04:52:21.100Z,57.04
2023-06-15T04:53:52.721Z,56.53
2023-06-15T04:55:24.382Z,56.73
2023-06-15T04:56:58.657Z,58.07
2023-06-15T04:58:30.363Z,57.25
2023-06-15T05:00:01.989Z,56.43
2023-06-15T05:01:33.778Z,56.01
2023-06-15T05:03:07.255Z,56.89
2023-06-15T05:04:39.048Z,56.75
2023-06-15T05:06:11.219Z,55.65
2023-06-15T05:07:42.842Z,55.85
2023-06-15T05:09:14.455Z,56.47
2023-06-15T05:10:47.126Z,57.20
2023-06-15T05:12:18.950Z,55.38
2023-06-15T05:13:50.832Z,54.18
2023-06-15T05:15:22.800Z,55.09
2023-06-15T05:16:54.920Z,56.70
2023-06-15T05:18:28.028Z,55.44
2023-06-15T05:19:59.674Z,56.41
2023-06-15T05:21:31.686Z,54.63
2023-06-15T05:23:03.450Z,55.81
2023-06-15T05:24:35.972Z,56.22
2023-06-15T05:26:20.817Z,57.32
2023-06-15T05:27:59.297Z,57.91
2023-06-15T05:29:31.681Z,57.01
2023-06-15T05:31:03.587Z,56.65
2023-06-15T05:32:38.766Z,57.58
2023-06-15T05:34:12.367Z,57.31
2023-06-15T05:35:43.993Z,55.91
2023-06-15T05:37:15.792Z,56.69
2023-06-15T05:38:47.758Z,58.46
2023-06-15T05:40:19.722Z,58.77
2023-06-15T05:41:51.431Z,57.85
2023-06-15T05:43:23.188Z,58.54
2023-06-15T05:44:55.057Z,57.69
2023-06-15T05:46:26.686Z,56.19
2023-06-15T05:47:58.358Z,56.07
2023-06-15T05:49:31.534Z,56.76
2023-06-15T05:51:03.257Z,55.97
2023-06-15T05:52:34.843Z,54.56
2023-06-15T05:54:06.499Z,56.18
2023-06-15T05:55:38.144Z,56.10
2023-06-15T05:57:11.125Z,55.89
2023-06-15T05:58:42.864Z,57.16
2023-06-15T06:00:16.102Z,56.06
2023-06-15T06:01:47.755Z,55.66
2023-06-15T06:03:19.436Z,55.57
2023-06-15T06:04:52.406Z,55.15
2023-06-15T06:06:24.080Z,55.44
2023-06-15T06:07:56.179Z,55.34
2023-06-15T06:09:27.991Z,54.66
2023-06-15T06:10:59.893Z,54.86
2023-06-15T06:12:31.631Z,54.13
2023-06-15T06:14:03.298Z,52.93
2023-06-15T06:15:35.271Z,53.02
2023-06-15T06:17:07.060Z,53.00
2023-06-15T06:18:38.791Z,53.57
2023-06-15T06:20:13.188Z,52.63
2023-06-15T06:21:44.813Z,54.99
2023-06-15T06:23:16.729Z,55.60
2023-06-15T06:24:48.364Z,53.25
2023-06-15T06:26:20.132Z,51.56
2023-06-15T06:27:51.723Z,51.02
2023-06-15T06:29:23.365Z,50.60
2023-06-15T06:30:55.128Z,50.46
2023-06-15T06:32:26.881Z,49.73
2023-06-15T06:33:58.528Z,50.44
2023-06-15T06:35:31.543Z,51.48
2023-06-15T06:37:03.598Z,51.87
2023-06-15T06:38:37.244Z,51.46
2023-06-15T06:40:13.429Z,52.27
2023-06-15T06:41:46.616Z,50.81
2023-06-15T06:43:18.303Z,50.76
2023-06-15T06:44:49.935Z,52.40
2023-06-15T06:46:23.385Z,52.84
2023-06-15T06:47:55.099Z,54.14
2023-06-15T06:49:26.926Z,54.74
2023-06-15T06:50:59.943Z,54.91
2023-06-15T06:52:31.543Z,55.00
2023-06-15T06:54:03.504Z,54.22
2023-06-15T06:55:35.643Z,53.76
2023-06-15T06:57:07.378Z,53.94
2023-06-15T06:58:39.299Z,53.30
2023-06-15T07:00:12.481Z,52.68
2023-06-15T07:01:44.605Z,52.27
2023-06-15T07:03:16.488Z,54.28
2023-06-15T07:04:48.305Z,53.78
2023-06-15T07:06:21.339Z,54.41
2023-06-15T07:07:53.046Z,53.96
2023-06-15T07:09:24.662Z,53.52
2023-06-15T07:10:56.439Z,53.59
2023-06-15T07:12:28.098Z,53.40
2023-06-15T07:13:59.694Z,53.37
2023-06-15T07:15:32.723Z,53.23
2023-06-15T07:17:05.174Z,52.89
2023-06-15T07:18:36.840Z,53.98
2023-06-15T07:20:08.838Z,53.15
2023-06-15T07:21:41.852Z,53.76
2023-06-15T07:23:13.500Z,52.94
2023-06-15T07:24:45.448Z,52.40
2023-06-15T07:26:17.272Z,52.25
2023-06-15T07:27:48.883Z,52.73
2023-06-15T07:29:20.571Z,52.36
2023-06-15T07:30:52.268Z,52.99
2023-06-15T07:32:23.936Z,53.42
2023-06-15T07:33:55.901Z,53.15
2023-06-15T07:35:27.558Z,53.10
2023-06-15T07:37:00.773Z,53.10
2023-06-15T07:38:32.466Z,52.03
2023-06-15T07:40:05.039Z,52.05
2023-06-15T07:41:36.768Z,51.55
2023-06-15T07:43:08.470Z,52.03
2023-06-15T07:44:40.209Z,51.54
2023-06-15T07:46:11.882Z,51.58
2023-06-15T07:47:43.642Z,51.21
2023-06-15T07:49:15.372Z,50.97
2023-06-15T07:50:47.826Z,51.24
2023-06-15T07:52:20.832Z,51.65
2023-06-15T07:53:52.458Z,50.80
2023-06-15T07:55:24.115Z,50.88
2023-06-15T07:56:56.426Z,51.75
2023-06-15T07:58:28.078Z,52.17
2023-06-15T08:00:00.037Z,53.36
2023-06-15T08:01:31.714Z,50.77
2023-06-15T08:03:03.686Z,50.38
2023-06-15T08:04:35.466Z,51.40
2023-06-15T08:06:07.086Z,51.91
2023-06-15T08:07:40.090Z,51.44
2023-06-15T08:09:13.049Z,52.26
2023-06-15T08:12:43.135Z,50.27
2023-06-15T08:14:14.735Z,50.96
2023-06-15T08:15:46.441Z,51.91
2023-06-15T08:17:18.135Z,52.36
2023-06-15T08:18:49.791Z,50.73
2023-06-15T08:20:22.439Z,50.37
2023-06-15T08:21:54.215Z,49.60
2023-06-15T08:23:27.190Z,49.61
2023-06-15T08:24:58.809Z,51.50
2023-06-15T08:26:31.597Z,50.17
2023-06-15T08:28:03.414Z,50.26
2023-06-15T08:29:35.056Z,50.03
2023-06-15T08:31:06.842Z,51.32
2023-06-15T08:32:38.479Z,51.11
2023-06-15T08:34:10.316Z,50.51
2023-06-15T08:35:42.085Z,49.19
2023-06-15T08:37:15.860Z,50.15
2023-06-15T08:38:48.893Z,49.92
2023-06-15T08:40:20.684Z,48.86
2023-06-15T08:41:52.677Z,48.24
2023-06-15T08:43:24.383Z,49.03
2023-06-15T08:44:56.232Z,50.06
2023-06-15T08:46:29.794Z,49.41
2023-06-15T08:48:01.542Z,50.56
2023-06-15T08:49:33.398Z,49.38
2023-06-15T08:51:05.318Z,49.07
2023-06-15T08:52:38.757Z,48.65
2023-06-15T08:54:11.776Z,48.11
2023-06-15T08:55:43.466Z,48.82
2023-06-15T08:57:15.172Z,49.80
2023-06-15T08:58:50.739Z,48.33
2023-06-15T09:00:22.790Z,48.49
2023-06-15T09:01:55.141Z,48.36
2023-06-15T09:03:26.865Z,47.84
2023-06-15T09:04:58.534Z,46.63
2023-06-15T09:06:30.286Z,48.06
2023-06-15T09:08:02.022Z,48.91
2023-06-15T09:09:35.379Z,48.39
2023-06-15T09:11:07.219Z,48.53
2023-06-15T09:12:42.277Z,47.08
2023-06-15T09:14:14.152Z,47.09
2023-06-15T09:15:51.748Z,48.40
2023-06-15T09:17:28.066Z,46.99
2023-06-15T09:18:59.761Z,48.13
2023-06-15T09:20:32.353Z,47.32
2023-06-15T09:22:04.442Z,47.54
2023-06-15T09:23:39.108Z,47.07
2023-06-15T09:25:17.477Z,47.35
2023-06-15T09:26:49.190Z,47.42
2023-06-15T09:28:21.417Z,47.05
2023-06-15T09:30:02.928Z,47.22
2023-06-15T09:31:35.692Z,48.58
2023-06-15T09:33:12.515Z,48.13
2023-06-15T09:34:56.951Z,48.89
2023-06-15T09:36:28.593Z,47.03
2023-06-15T09:38:00.408Z,47.61
2023-06-15T09:39:32.173Z,47.50
2023-06-15T09:41:05.387Z,47.23
2023-06-15T09:42:37.151Z,47.52
2023-06-15T09:44:09.553Z,47.76
2023-06-15T09:45:49.571Z,48.69
2023-06-15T09:47:21.281Z,47.29
2023-06-15T09:48:52.975Z,46.81
2023-06-15T09:50:28.636Z,46.82
2023-06-15T09:52:01.239Z,46.19
2023-06-15T09:53:33.016Z,45.65
2023-06-15T09:55:05.443Z,43.91
2023-06-15T09:56:38.506Z,43.53
2023-06-15T09:58:11.391Z,43.61
2023-06-15T09:59:43.089Z,44.94
2023-06-15T10:01:14.794Z,43.29
2023-06-15T10:02:46.746Z,42.78
2023-06-15T10:04:20.711Z,41.71
2023-06-15T10:05:55.416Z,40.82
2023-06-15T10:07:27.125Z,43.19
2023-06-15T10:09:00.926Z,42.58
2023-06-15T10:10:32.611Z,46.38
2023-06-15T10:12:07.691Z,44.75
2023-06-15T10:13:41.098Z,45.22
2023-06-15T10:15:13.749Z,46.12
2023-06-15T10:16:46.487Z,45.84
2023-06-15T10:18:18.275Z,43.70
2023-06-15T10:19:51.394Z,42.33
2023-06-15T10:21:28.031Z,42.57
2023-06-15T10:23:05.160Z,41.06
2023-06-15T10:24:36.962Z,41.23
2023-06-15T10:26:09.033Z,38.90
2023-06-15T10:27:42.096Z,38.58
2023-06-15T10:29:16.709Z,38.09
2023-06-15T10:30:51.624Z,37.63
2023-06-15T10:32:27.579Z,36.72
2023-06-15T10:34:02.837Z,37.69
2023-06-15T10:35:37.203Z,38.85
2023-06-15T10:37:15.020Z,38.46
2023-06-15T10:38:50.545Z,42.06
2023-06-15T10:40:25.924Z,39.87
2023-06-15T10:41:58.333Z,41.52
2023-06-15T10:43:31.387Z,42.65
2023-06-15T10:45:26.188Z,42.20
2023-06-15T10:47:06.783Z,42.79
2023-06-15T10:48:39.354Z,40.79
2023-06-15T10:50:15.692Z,40.81
2023-06-15T10:51:53.880Z,39.30
2023-06-15T10:53:26.403Z,38.82
2023-06-15T10:54:59.598Z,40.79
2023-06-15T10:56:31.251Z,39.56
2023-06-15T10:58:15.796Z,39.41
2023-06-15T10:59:49.706Z,36.37
2023-06-15T11:01:21.773Z,37.36
2023-06-15T11:02:55.944Z,36.28
2023-06-15T11:04:31.640Z,34.79
2023-06-15T11:06:04.582Z,38.43
2023-06-15T11:07:36.815Z,36.69
2023-06-15T11:09:13.123Z,34.14
2023-06-15T11:10:44.871Z,35.56
2023-06-15T11:12:44.077Z,34.00
2023-06-15T11:14:21.863Z,34.56
2023-06-15T11:16:15.875Z,34.09
2023-06-15T11:17:53.821Z,35.37
2023-06-15T11:19:26.021Z,33.89
2023-06-15T11:21:01.526Z,33.54
2023-06-15T11:22:33.224Z,33.03
2023-06-15T11:24:05.265Z,34.54
2023-06-15T11:25:37.602Z,35.49
2023-06-15T11:27:13.681Z,36.00
2023-06-15T11:28:46.524Z,33.74
2023-06-15T11:30:18.730Z,32.86
2023-06-15T11:31:52.082Z,34.52
2023-06-15T11:33:28.227Z,32.33
2023-06-15T11:35:01.682Z,34.41
2023-06-15T11:36:33.461Z,33.44
2023-06-15T11:38:06.800Z,32.26
2023-06-15T11:39:38.608Z,33.91
2023-06-15T11:41:11.825Z,34.35
2023-06-15T11:42:43.762Z,33.81
2023-06-15T11:44:15.737Z,33.66
2023-06-15T11:45:50.404Z,33.72
2023-06-15T11:47:23.586Z,33.39
2023-06-15T11:48:56.121Z,34.64
2023-06-15T11:50:29.562Z,34.56
2023-06-15T11:52:01.438Z,32.83
2023-06-15T11:53:34.429Z,31.04
2023-06-15T11:55:09.239Z,31.04
2023-06-15T11:56:44.846Z,31.25
2023-06-15T11:58:16.494Z,30.61
2023-06-15T11:59:52.007Z,30.70
2023-06-15T12:01:27.051Z,31.53
2023-06-15T12:03:00.079Z,31.36
2023-06-15T12:04:31.891Z,28.96
2023-06-15T12:06:03.758Z,30.70
2023-06-15T12:07:38.557Z,30.23
2023-06-15T12:09:10.740Z,29.52
2023-06-15T12:10:43.811Z,29.68
2023-06-15T12:12:29.180Z,30.00
2023-06-15T12:14:01.601Z,28.37
2023-06-15T12:15:33.312Z,29.84
2023-06-15T12:17:05.293Z,30.32
2023-06-15T12:18:38.262Z,29.00
2023-06-15T12:20:16.190Z,28.82
2023-06-15T12:21:49.746Z,29.34
2023-06-15T12:23:28.586Z,29.06
2023-06-15T12:25:03.258Z,29.48
2023-06-15T12:26:34.948Z,29.30
2023-06-15T12:28:13.548Z,29.31
2023-06-15T12:29:45.185Z,28.63
2023-06-15T12:31:17.083Z,28.81
2023-06-15T12:32:50.185Z,29.58
2023-06-15T12:34:25.223Z,29.36
2023-06-15T12:35:57.673Z,30.90
2023-06-15T12:37:42.461Z,28.59
2023-06-15T12:39:21.351Z,28.62
2023-06-15T12:40:53.660Z,27.45
2023-06-15T12:42:27.154Z,27.78
2023-06-15T12:43:58.821Z,28.71
2023-06-15T12:45:30.795Z,28.77
2023-06-15T12:47:04.630Z,28.38
2023-06-15T12:48:36.746Z,28.36
2023-06-15T12:50:10.807Z,27.84
2023-06-15T12:51:47.630Z,27.92
2023-06-15T12:53:19.376Z,29.46
2023-06-15T12:54:51.056Z,28.85
2023-06-15T12:56:22.727Z,29.14
2023-06-15T12:57:56.438Z,29.18
2023-06-15T12:59:28.143Z,28.98
2023-06-15T13:01:00.335Z,27.74
2023-06-15T13:02:33.788Z,28.39
2023-06-15T13:04:06.065Z,28.19
2023-06-15T13:05:39.766Z,26.82
2023-06-15T13:07:11.791Z,26.97
2023-06-15T13:08:44.076Z,27.41
2023-06-15T13:10:16.325Z,26.52
2023-06-15T13:11:48.938Z,28.89
2023-06-15T13:13:20.639Z,29.96
2023-06-15T13:14:52.312Z,28.20
2023-06-15T13:16:24.280Z,29.61
2023-06-15T13:17:56.045Z,28.77
2023-06-15T13:19:27.928Z,26.58
2023-06-15T13:21:01.515Z,27.34
2023-06-15T13:22:33.335Z,27.46
2023-06-15T13:24:05.482Z,28.08
2023-06-15T13:25:37.213Z,28.86
2023-06-15T13:27:09.298Z,28.19
2023-06-15T13:28:42.246Z,28.72
2023-06-15T13:30:14.544Z,28.80
2023-06-15T13:31:46.416Z,28.89
2023-06-15T13:33:18.568Z,28.19
2023-06-15T13:34:50.298Z,27.15
2023-06-15T13:36:23.358Z,27.91
2023-06-15T13:37:56.228Z,27.86
2023-06-15T13:39:27.864Z,29.80
2023-06-15T13:40:59.596Z,29.15
2023-06-15T13:42:31.458Z,28.55
2023-06-15T13:44:03.209Z,27.92
2023-06-15T13:45:34.957Z,29.13
2023-06-15T13:47:07.112Z,29.55
2023-06-15T13:48:38.728Z,29.96
2023-06-15T13:50:12.544Z,29.05
2023-06-15T13:51:45.520Z,30.93
2023-06-15T13:53:17.221Z,30.05
2023-06-15T13:54:48.942Z,30.88
2023-06-15T13:56:20.747Z,29.71
2023-06-15T13:57:52.410Z,30.79
2023-06-15T13:59:25.240Z,30.54
2023-06-15T14:00:57.406Z,30.00
2023-06-15T14:02:29.170Z,30.92
2023-06-15T14:04:01.024Z,29.97
2023-06-15T14:05:33.054Z,29.55
2023-06-15T14:07:06.896Z,30.29
2023-06-15T14:08:38.573Z,29.63
2023-06-15T14:10:11.192Z,29.97
2023-06-15T14:11:43.007Z,29.65
2023-06-15T14:13:16.999Z,30.40
2023-06-15T14:14:48.751Z,30.39
2023-06-15T14:16:21.132Z,29.19
2023-06-15T14:17:53.004Z,29.41
2023-06-15T14:19:25.243Z,30.04
2023-06-15T14:20:56.845Z,29.49
2023-06-15T14:22:31.508Z,30.77
2023-06-15T14:24:04.818Z,30.57
2023-06-15T14:25:36.694Z,31.25
2023-06-15T14:27:08.371Z,31.79
2023-06-15T14:28:40.033Z,30.27
2023-06-15T14:30:12.847Z,32.03
2023-06-15T14:31:47.557Z,31.50
2023-06-15T14:33:19.812Z,31.29
2023-06-15T14:34:51.510Z,29.53
2023-06-15T14:36:23.132Z,30.12
2023-06-15T14:37:56.327Z,29.04
2023-06-15T14:39:28.015Z,28.34
2023-06-15T14:40:59.650Z,27.85
2023-06-15T14:42:32.093Z,28.65
2023-06-15T14:44:05.186Z,27.56
2023-06-15T14:45:36.950Z,29.44
2023-06-15T14:47:08.841Z,28.90
2023-06-15T14:48:40.966Z,31.77
2023-06-15T14:50:16.085Z,30.44
2023-06-15T14:51:48.030Z,31.38
2023-06-15T14:53:21.139Z,30.57
2023-06-15T14:54:52.871Z,31.20
2023-06-15T14:56:26.871Z,28.97
2023-06-15T14:57:58.486Z,27.39
2023-06-15T14:59:30.174Z,28.41
2023-06-15T15:01:02.002Z,27.82
2023-06-15T15:02:33.720Z,25.95
2023-06-15T15:04:05.483Z,26.76
2023-06-15T15:05:37.845Z,26.73
2023-06-15T15:07:09.467Z,27.16
2023-06-15T15:08:42.446Z,25.84
2023-06-15T15:10:14.111Z,26.79
2023-06-15T15:11:45.795Z,27.40
2023-06-15T15:13:19.615Z,26.38
2023-06-15T15:14:53.185Z,26.95
2023-06-15T15:16:25.300Z,29.10
2023-06-15T15:17:57.119Z,28.68
2023-06-15T15:19:28.828Z,28.62
2023-06-15T15:21:01.099Z,29.98
2023-06-15T15:22:32.846Z,30.83
2023-06-15T15:24:06.570Z,28.78
2023-06-15T15:25:38.782Z,29.82
2023-06-15T15:27:10.490Z,29.30
2023-06-15T15:28:42.441Z,29.48
2023-06-15T15:30:14.188Z,28.44
2023-06-15T15:31:45.858Z,27.91
2023-06-15T15:33:17.713Z,29.71
2023-06-15T15:34:49.504Z,30.40
2023-06-15T15:36:21.214Z,29.83
2023-06-15T15:37:52.904Z,27.44
2023-06-15T15:39:26.056Z,28.41
2023-06-15T15:40:57.877Z,29.89
2023-06-15T15:42:29.798Z,28.61
2023-06-15T15:44:01.855Z,28.27
2023-06-15T15:45:33.645Z,29.48
2023-06-15T15:47:06.138Z,30.71
2023-06-15T15:48:37.856Z,29.56
2023-06-15T15:50:10.705Z,29.05
2023-06-15T15:51:42.378Z,29.93
2023-06-15T15:53:14.082Z,29.07
2023-06-15T15:54:48.850Z,28.93
2023-06-15T15:56:20.662Z,29.09
2023-06-15T15:57:52.320Z,28.06
2023-06-15T15:59:24.044Z,29.86
2023-06-15T16:00:55.751Z,28.73
2023-06-15T16:02:27.540Z,29.38
2023-06-15T16:03:59.487Z,28.82
2023-06-15T16:05:31.329Z,27.75
2023-06-15T16:07:03.077Z,29.10
2023-06-15T16:08:34.716Z,28.16
2023-06-15T16:10:08.662Z,28.71
2023-06-15T16:11:41.246Z,27.71
2023-06-15T16:13:12.999Z,28.39
2023-06-15T16:14:44.666Z,26.37
2023-06-15T16:16:28.165Z,26.85
2023-06-15T16:18:00.918Z,28.18
2023-06-15T16:19:32.655Z,26.18
2023-06-15T16:21:04.441Z,29.08
2023-06-15T16:22:36.659Z,27.58
2023-06-15T16:24:08.485Z,27.13
2023-06-15T16:25:41.657Z,28.12
2023-06-15T16:27:13.477Z,28.44
2023-06-15T16:28:45.448Z,29.37
2023-06-15T16:30:17.364Z,28.46
2023-06-15T16:31:49.178Z,28.92
2023-06-15T16:33:21.036Z,28.61
2023-06-15T16:34:54.614Z,29.71
2023-06-15T16:36:26.227Z,30.42
2023-06-15T16:37:57.949Z,31.20
2023-06-15T16:39:51.189Z,32.67
2023-06-15T16:41:24.222Z,32.92
2023-06-15T16:42:56.123Z,30.94
2023-06-15T16:44:27.771Z,31.07
2023-06-15T16:45:59.514Z,31.12
2023-06-15T16:47:33.924Z,30.93
2023-06-15T16:49:05.758Z,29.96
2023-06-15T16:50:37.497Z,31.75
2023-06-15T16:52:10.299Z,32.31
2023-06-15T16:53:42.016Z,31.55
2023-06-15T16:55:13.741Z,31.68
2023-06-15T16:56:46.899Z,30.50
2023-06-15T16:58:20.605Z,30.89
2023-06-15T16:59:53.567Z,30.99
2023-06-15T17:01:25.226Z,30.38
2023-06-15T17:02:57.129Z,30.93
2023-06-15T17:04:28.845Z,31.08
2023-06-15T17:06:00.494Z,30.65
2023-06-15T17:07:32.254Z,31.25
2023-06-15T17:09:04.234Z,33.13
2023-06-15T17:10:35.906Z,31.65
2023-06-15T17:12:09.935Z,32.86
2023-06-15T17:13:41.548Z,33.47
2023-06-15T17:15:13.195Z,33.40
2023-06-15T17:16:45.220Z,33.23
2023-06-15T17:18:17.001Z,32.95
2023-06-15T17:19:48.860Z,33.16
2023-06-15T17:21:24.415Z,33.33
2023-06-15T17:22:56.540Z,33.79
2023-06-15T17:24:28.468Z,34.92
2023-06-15T17:26:00.252Z,34.00
2023-06-15T17:27:33.270Z,35.12
2023-06-15T17:29:05.047Z,35.37
2023-06-15T17:30:37.050Z,35.33
2023-06-15T17:32:10.832Z,34.04
2023-06-15T17:33:43.596Z,36.50
2023-06-15T17:35:15.451Z,34.84
2023-06-15T17:36:47.436Z,37.57
2023-06-15T17:38:19.076Z,36.27
2023-06-15T17:39:51.176Z,35.54
2023-06-15T17:41:22.917Z,34.50
2023-06-15T17:42:55.932Z,35.72
2023-06-15T17:44:27.904Z,36.65
2023-06-15T17:45:59.641Z,37.53
2023-06-15T17:47:36.598Z,39.19
2023-06-15T17:49:08.326Z,39.84
2023-06-15T17:50:40.187Z,41.45
2023-06-15T17:52:11.908Z,41.50
2023-06-15T17:53:46.324Z,42.00
2023-06-15T17:55:17.995Z,41.31
2023-06-15T17:56:51.036Z,41.04
2023-06-15T17:58:24.712Z,42.51
2023-06-15T17:59:56.721Z,40.30
2023-06-15T18:01:28.413Z,40.48
2023-06-15T18:03:00.128Z,39.87
2023-06-15T18:04:31.982Z,39.80
2023-06-15T18:06:03.920Z,40.63
2023-06-15T18:07:35.614Z,40.90
2023-06-15T18:09:07.614Z,40.26
2023-06-15T18:10:39.434Z,40.20
2023-06-15T18:12:12.451Z,39.57
2023-06-15T18:13:46.903Z,40.12
2023-06-15T18:15:18.992Z,40.27
2023-06-15T18:16:51.014Z,40.40
2023-06-15T18:18:23.973Z,40.99
2023-06-15T18:19:55.709Z,40.75
2023-06-15T18:21:27.334Z,40.26
2023-06-15T18:23:01.290Z,41.33
2023-06-15T18:24:33.056Z,40.84
2023-06-15T18:26:06.666Z,41.05
2023-06-15T18:27:40.946Z,40.29
2023-06-15T18:29:16.947Z,40.03
2023-06-15T18:30:48.714Z,40.51
2023-06-15T18:32:20.519Z,40.33
2023-06-15T18:33:52.214Z,41.07
2023-06-15T18:35:24.258Z,41.30
2023-06-15T18:36:58.831Z,41.54
2023-06-15T18:38:32.448Z,40.80
2023-06-15T18:40:04.601Z,40.21
2023-06-15T18:41:38.775Z,40.94
2023-06-15T18:43:10.722Z,40.11
2023-06-15T18:44:43.895Z,40.84
2023-06-15T18:46:19.522Z,41.46
2023-06-15T18:47:51.348Z,43.61
2023-06-15T18:49:23.175Z,43.50
2023-06-15T18:50:54.841Z,43.15
2023-06-15T18:52:26.853Z,43.58
2023-06-15T18:53:59.148Z,42.17
2023-06-15T18:55:31.022Z,41.96
2023-06-15T18:57:02.709Z,43.06
2023-06-15T19:00:56.481Z,43.44
2023-06-15T19:02:28.281Z,44.39
2023-06-15T19:04:00.150Z,44.20
2023-06-15T19:05:31.901Z,43.46
2023-06-15T19:07:03.652Z,45.20
2023-06-15T19:08:35.468Z,45.48
2023-06-15T19:10:08.129Z,45.60
2023-06-15T19:11:39.893Z,45.73
2023-06-15T19:13:11.618Z,44.80
2023-06-15T19:14:43.244Z,43.57
2023-06-15T19:16:16.316Z,43.59
2023-06-15T19:17:48.085Z,43.31
2023-06-15T19:19:19.873Z,44.76
2023-06-15T19:20:51.675Z,44.68
2023-06-15T19:22:23.511Z,44.86
2023-06-15T19:23:55.275Z,44.93
2023-06-15T19:25:27.023Z,44.76
2023-06-15T19:26:59.439Z,45.92
2023-06-15T19:28:31.357Z,46.23
2023-06-15T19:30:03.197Z,47.29
2023-06-15T19:31:36.204Z,47.10
2023-06-15T19:33:10.140Z,48.50
2023-06-15T19:34:41.852Z,46.03
2023-06-15T19:36:13.512Z,45.72
2023-06-15T19:37:45.382Z,45.33
2023-06-15T19:39:20.722Z,45.39
2023-06-15T19:40:53.067Z,44.79
2023-06-15T19:42:26.445Z,44.57
2023-06-15T19:43:58.366Z,44.71
2023-06-15T19:45:30.050Z,44.95
2023-06-15T19:47:03.136Z,45.12
2023-06-15T19:48:34.870Z,44.65
2023-06-15T19:50:07.606Z,44.05
2023-06-15T19:51:41.778Z,44.67
2023-06-15T19:53:13.418Z,44.17
2023-06-15T19:54:45.080Z,43.99
2023-06-15T19:56:16.718Z,43.72
2023-06-15T19:57:48.362Z,43.62
2023-06-15T19:59:20.147Z,43.53